createdAt,value
2022-11-05T00:00:47.685Z,99.99
2022-11-05T00:01:49.176Z,99.99
2022-11-05T00:02:47.656Z,99.99
2022-11-05T00:03:47.750Z,99.99
2022-11-05T00:04:47.625Z,99.85
2022-11-05T00:05:47.606Z,99.75
2022-11-05T00:06:47.604Z,99.65
2022-11-05T00:07:48.527Z,99.65
2022-11-05T00:08:47.578Z,99.54
2022-11-05T00:09:47.562Z,99.65
2022-11-05T00:10:47.546Z,99.54
2022-11-05T00:11:47.528Z,99.54
2022-11-05T00:12:47.524Z,99.54
2022-11-05T00:13:47.508Z,99.44
2022-11-05T00:14:47.497Z,99.44
2022-11-05T00:15:47.479Z,99.44
2022-11-05T00:16:47.458Z,99.49
2022-11-05T00:17:47.449Z,99.49
2022-11-05T00:18:47.438Z,99.49
2022-11-05T00:19:47.423Z,99.38
2022-11-05T00:20:47.420Z,99.38
2022-11-05T00:21:47.399Z,99.49
2022-11-05T00:22:47.389Z,99.18
2022-11-05T00:23:47.381Z,99.28
2022-11-05T00:24:47.359Z,99.38
2022-11-05T00:25:47.385Z,99.38
2022-11-05T00:26:47.331Z,99.38
2022-11-05T00:27:47.312Z,99.49
2022-11-05T00:28:47.310Z,99.38
2022-11-05T00:29:47.293Z,99.28
2022-11-05T00:30:47.282Z,99.08
2022-11-05T00:31:47.274Z,98.97
2022-11-05T00:32:47.251Z,99.08
2022-11-05T00:33:47.251Z,98.87
2022-11-05T05:20:59.974Z,98.97
2022-11-05T05:21:08.720Z,99.99
2022-11-05T05:22:04.730Z,99.99
2022-11-05T05:23:04.723Z,99.99
2022-11-05T05:24:04.702Z,99.99
2022-11-05T05:25:04.688Z,99.99
2022-11-05T05:26:04.663Z,99.99
2022-11-05T05:27:04.673Z,99.99
2022-11-05T05:28:04.654Z,99.99
2022-11-05T05:29:04.633Z,99.99
2022-11-05T05:30:04.616Z,99.99
2022-11-05T05:31:04.596Z,99.99
2022-11-05T05:32:04.584Z,99.99
2022-11-05T05:33:04.589Z,99.99
2022-11-05T05:34:04.565Z,99.99
2022-11-05T05:35:04.553Z,99.99
2022-11-05T05:36:09.966Z,99.99
2022-11-05T05:37:05.568Z,99.99
2022-11-05T05:38:04.547Z,99.99
2022-11-05T05:39:04.497Z,99.99
2022-11-05T05:40:04.519Z,99.99
2022-11-05T05:41:04.466Z,99.99
2022-11-05T05:42:04.447Z,99.99
2022-11-05T05:43:04.444Z,99.99
2022-11-05T05:44:04.437Z,99.99
2022-11-05T05:45:04.419Z,99.99
2022-11-05T05:46:04.402Z,99.99
2022-11-05T05:47:04.411Z,99.99
2022-11-05T05:48:04.385Z,99.99
2022-11-05T05:49:07.975Z,99.99
2022-11-05T05:50:05.338Z,99.99
2022-11-05T05:51:04.343Z,99.99
2022-11-05T05:52:04.324Z,99.99
2022-11-05T05:53:04.353Z,99.99
2022-11-05T05:54:04.291Z,99.99
2022-11-05T05:55:04.275Z,99.99
2022-11-05T05:56:04.260Z,99.99
2022-11-05T05:57:04.260Z,99.99
2022-11-05T05:58:04.246Z,99.99
2022-11-05T05:59:04.225Z,99.99
2022-11-05T06:00:04.211Z,99.99
2022-11-05T06:01:04.190Z,99.99
2022-11-05T06:02:04.272Z,99.99
2022-11-05T06:03:04.493Z,99.99
2022-11-05T06:04:04.162Z,99.99
2022-11-05T06:05:04.142Z,99.99
2022-11-05T06:06:04.145Z,99.99
2022-11-05T06:07:04.123Z,99.99
2022-11-05T06:08:04.115Z,99.99
2022-11-05T06:09:04.092Z,99.99
2022-11-05T06:10:04.072Z,99.99
2022-11-05T06:11:04.132Z,99.99
2022-11-05T06:12:04.081Z,99.99
2022-11-05T06:13:04.062Z,99.99
2022-11-05T06:14:04.025Z,99.99
2022-11-05T06:15:04.003Z,99.99
2022-11-05T06:16:03.995Z,99.99
2022-11-05T06:17:03.985Z,99.99
2022-11-05T06:18:03.975Z,99.99
2022-11-05T06:19:03.955Z,99.99
2022-11-05T06:20:03.945Z,99.99
2022-11-05T06:21:03.945Z,99.99
2022-11-05T06:22:03.936Z,99.99
2022-11-05T06:23:03.926Z,99.99
2022-11-05T06:24:03.929Z,99.99
2022-11-05T06:25:03.878Z,99.99
2022-11-05T06:26:04.089Z,99.99
2022-11-05T06:27:03.857Z,99.99
2022-11-05T06:28:03.826Z,99.99
2022-11-05T06:29:03.827Z,99.99
2022-11-05T06:30:03.798Z,99.99
2022-11-05T06:31:03.796Z,99.99
2022-11-05T06:32:03.774Z,99.99
2022-11-05T06:33:03.769Z,99.99
2022-11-05T06:34:03.743Z,99.99
2022-11-05T06:35:03.728Z,99.99
2022-11-05T06:36:03.721Z,99.99
2022-11-05T06:37:03.717Z,99.99
2022-11-05T06:38:03.697Z,99.99
2022-11-05T06:39:04.635Z,99.99
2022-11-05T06:40:03.659Z,99.99
2022-11-05T06:41:09.888Z,99.99
2022-11-05T06:42:17.955Z,99.99
2022-11-05T06:43:04.648Z,99.99
2022-11-05T06:44:03.646Z,99.99
2022-11-05T06:45:03.596Z,99.99
2022-11-05T06:46:03.595Z,99.99
2022-11-05T06:47:03.662Z,99.99
2022-11-05T06:48:03.560Z,99.99
2022-11-05T06:49:03.541Z,99.99
2022-11-05T06:50:03.540Z,99.99
2022-11-05T06:51:03.522Z,99.99
2022-11-05T06:52:03.510Z,99.99
2022-11-05T06:53:03.513Z,99.99
2022-11-05T06:54:03.477Z,99.99
2022-11-05T06:55:03.472Z,99.99
2022-11-05T06:56:03.441Z,99.99
2022-11-05T06:57:03.468Z,99.99
2022-11-05T06:58:03.424Z,99.99
2022-11-05T06:59:03.422Z,99.99
2022-11-05T07:00:07.663Z,99.99
2022-11-05T07:01:03.471Z,99.99
2022-11-05T07:02:03.424Z,99.99
2022-11-05T07:03:03.362Z,99.99
2022-11-05T07:04:03.334Z,99.99
2022-11-05T07:05:03.324Z,99.99
2022-11-05T07:06:03.314Z,99.99
2022-11-05T07:07:03.323Z,99.99
2022-11-05T07:08:04.261Z,99.99
2022-11-05T07:09:04.278Z,99.99
2022-11-05T07:10:03.295Z,99.99
2022-11-05T07:11:03.251Z,99.99
2022-11-05T07:12:03.235Z,99.99
2022-11-05T07:13:07.799Z,99.99
2022-11-05T07:14:04.216Z,99.99
2022-11-05T07:15:03.202Z,99.99
2022-11-05T07:16:03.191Z,99.99
2022-11-05T07:17:03.175Z,99.99
2022-11-05T07:18:03.156Z,99.99
2022-11-05T07:19:03.136Z,99.99
2022-11-05T07:20:03.118Z,99.99
2022-11-05T07:21:03.117Z,99.99
2022-11-05T07:22:03.098Z,99.99
2022-11-05T07:23:03.093Z,99.99
2022-11-05T07:24:03.068Z,99.99
2022-11-05T07:25:03.058Z,99.99
2022-11-05T07:26:03.039Z,99.99
2022-11-05T07:27:03.049Z,99.99
2022-11-05T07:28:03.972Z,99.84
2022-11-05T07:29:03.008Z,99.63
2022-11-05T07:30:02.990Z,99.54
2022-11-05T07:31:02.990Z,99.33
2022-11-05T07:32:02.972Z,99.08
2022-11-05T07:33:02.961Z,98.87
2022-11-05T07:34:02.940Z,98.87
2022-11-05T07:35:02.945Z,98.77
2022-11-05T07:36:02.915Z,98.57
2022-11-05T07:37:02.921Z,98.46
2022-11-05T07:38:02.881Z,98.46
2022-11-05T07:39:02.880Z,98.25
2022-11-05T07:40:02.856Z,98.25
2022-11-05T07:41:02.852Z,98.25
2022-11-05T07:42:02.832Z,98.05
2022-11-05T07:43:02.813Z,98.36
2022-11-05T07:44:02.793Z,98.36
2022-11-05T07:45:02.796Z,98.25
2022-11-05T07:46:02.773Z,98.05
2022-11-05T07:47:02.784Z,97.74
2022-11-05T07:48:02.753Z,97.54
2022-11-05T07:49:02.736Z,97.33
2022-11-05T07:50:02.715Z,97.33
2022-11-05T07:51:02.717Z,97.23
2022-11-05T07:52:02.695Z,97.13
2022-11-05T07:53:02.698Z,97.03
2022-11-05T07:54:02.667Z,97.13
2022-11-05T07:55:02.656Z,97.29
2022-11-05T07:56:02.636Z,97.08
2022-11-05T07:57:02.647Z,97.08
2022-11-05T07:58:02.615Z,97.08
2022-11-05T07:59:02.627Z,97.14
2022-11-05T08:00:02.628Z,96.94
2022-11-05T08:01:02.745Z,96.94
2022-11-05T08:02:02.718Z,96.83
2022-11-05T08:03:07.720Z,96.32
2022-11-05T08:04:03.538Z,96.48
2022-11-05T08:05:02.514Z,96.38
2022-11-05T08:06:02.515Z,96.38
2022-11-05T08:07:02.513Z,96.48
2022-11-05T08:08:02.473Z,96.58
2022-11-05T08:09:02.481Z,96.38
2022-11-05T08:10:02.459Z,96.28
2022-11-05T08:11:02.440Z,95.97
2022-11-05T08:12:03.395Z,95.97
2022-11-05T08:13:02.421Z,95.76
2022-11-05T08:14:02.407Z,95.56
2022-11-05T08:15:02.380Z,95.46
2022-11-05T08:16:05.043Z,95.46
2022-11-05T08:17:02.381Z,95.61
2022-11-05T08:18:02.348Z,95.70
2022-11-05T08:19:02.333Z,95.70
2022-11-05T08:20:02.322Z,95.81
2022-11-05T08:21:03.341Z,95.91
2022-11-05T08:22:03.233Z,95.56
2022-11-05T08:23:02.274Z,95.56
2022-11-05T08:24:02.262Z,96.07
2022-11-05T08:25:06.822Z,96.03
2022-11-05T08:26:03.215Z,96.03
2022-11-05T08:27:02.566Z,95.92
2022-11-05T08:28:02.208Z,95.72
2022-11-05T08:29:02.198Z,95.47
2022-11-05T08:30:02.355Z,95.78
2022-11-05T08:31:03.138Z,95.78
2022-11-05T08:32:03.113Z,95.57
2022-11-05T08:33:02.165Z,95.47
2022-11-05T08:34:02.743Z,94.96
2022-11-05T08:35:02.112Z,94.85
2022-11-05T08:36:02.111Z,94.85
2022-11-05T08:37:02.105Z,95.06
2022-11-05T08:38:03.005Z,94.24
2022-11-05T08:39:02.069Z,94.10
2022-11-05T08:40:02.047Z,93.73
2022-11-05T08:41:02.043Z,93.12
2022-11-05T08:42:02.024Z,93.12
2022-11-05T08:43:02.020Z,93.32
2022-11-05T08:44:02.016Z,92.65
2022-11-05T08:45:02.043Z,93.37
2022-11-05T08:46:02.009Z,93.47
2022-11-05T08:47:02.925Z,93.37
2022-11-05T08:48:01.950Z,93.67
2022-11-05T08:49:01.933Z,93.16
2022-11-05T08:50:02.863Z,93.88
2022-11-05T08:51:01.930Z,93.06
2022-11-05T08:52:01.900Z,93.12
2022-11-05T08:53:01.880Z,93.73
2022-11-05T08:54:01.883Z,93.57
2022-11-05T08:55:01.871Z,93.47
2022-11-05T08:56:02.805Z,93.37
2022-11-05T08:57:01.841Z,93.37
2022-11-05T08:58:01.810Z,93.57
2022-11-05T08:59:01.801Z,94.18
2022-11-05T09:00:02.741Z,92.96
2022-11-05T09:01:05.004Z,92.96
2022-11-05T09:02:01.861Z,93.57
2022-11-05T09:03:01.761Z,93.57
2022-11-05T09:04:01.738Z,93.22
2022-11-05T09:05:01.712Z,93.37
2022-11-05T09:06:01.727Z,93.73
2022-11-05T09:07:01.682Z,92.81
2022-11-05T09:08:02.629Z,92.91
2022-11-05T09:09:01.664Z,93.63
2022-11-05T09:10:01.645Z,93.63
2022-11-05T09:11:01.648Z,93.89
2022-11-05T09:12:17.922Z,93.07
2022-11-05T09:13:02.608Z,91.48
2022-11-05T09:14:01.595Z,92.71
2022-11-05T09:15:01.577Z,92.30
2022-11-05T09:16:01.597Z,91.89
2022-11-05T09:17:02.534Z,92.19
2022-11-05T09:18:01.557Z,92.30
2022-11-05T09:19:01.539Z,92.30
2022-11-05T09:20:01.690Z,92.71
2022-11-05T09:21:02.447Z,93.32
2022-11-05T09:22:01.495Z,93.32
2022-11-05T09:23:01.466Z,93.63
2022-11-05T09:24:01.465Z,92.60
2022-11-05T09:25:01.442Z,93.32
2022-11-05T09:26:01.451Z,92.81
2022-11-05T09:27:01.418Z,92.81
2022-11-05T09:28:01.406Z,91.58
2022-11-05T09:29:01.388Z,91.99
2022-11-05T09:30:01.379Z,91.78
2022-11-05T09:31:01.369Z,92.10
2022-11-05T09:32:01.350Z,92.05
2022-11-05T09:33:01.349Z,92.15
2022-11-05T09:34:01.352Z,91.95
2022-11-05T09:35:01.329Z,91.95
2022-11-05T09:36:01.307Z,91.54
2022-11-05T09:37:01.295Z,92.15
2022-11-05T09:38:01.560Z,91.64
2022-11-05T09:39:01.260Z,91.23
2022-11-05T09:40:01.261Z,91.33
2022-11-05T09:41:01.245Z,91.64
2022-11-05T09:42:01.231Z,91.13
2022-11-05T09:43:01.202Z,90.52
2022-11-05T09:44:01.228Z,91.03
2022-11-05T09:45:01.179Z,90.82
2022-11-05T09:46:01.195Z,91.54
2022-11-05T09:47:01.152Z,91.85
2022-11-05T09:48:01.149Z,92.25
2022-11-05T09:49:01.130Z,91.54
2022-11-05T09:50:01.109Z,91.85
2022-11-05T09:51:01.103Z,92.15
2022-11-05T09:52:01.094Z,92.36
2022-11-05T09:53:01.067Z,91.85
2022-11-05T09:54:01.060Z,91.44
2022-11-05T09:55:01.044Z,91.03
2022-11-05T09:56:01.045Z,91.70
2022-11-05T09:57:01.025Z,91.39
2022-11-05T09:58:01.016Z,91.39
2022-11-05T09:59:01.222Z,90.78
2022-11-05T10:00:00.995Z,90.06
2022-11-05T10:01:01.001Z,88.43
2022-11-05T10:02:01.058Z,89.76
2022-11-05T10:03:00.945Z,90.06
2022-11-05T10:04:00.926Z,89.04
2022-11-05T10:05:06.442Z,88.53
2022-11-05T10:06:01.909Z,89.56
2022-11-05T10:07:00.896Z,89.65
2022-11-05T10:08:00.880Z,89.65
2022-11-05T10:09:00.869Z,90.17
2022-11-05T10:10:00.849Z,89.65
2022-11-05T10:11:00.849Z,90.47
2022-11-05T10:12:00.818Z,89.97
2022-11-05T10:13:00.809Z,89.97
2022-11-05T10:14:00.800Z,90.58
2022-11-05T10:15:00.786Z,90.94
2022-11-05T10:16:00.791Z,90.06
2022-11-05T10:17:00.750Z,90.23
2022-11-05T10:18:00.731Z,90.64
2022-11-05T10:19:00.721Z,91.25
2022-11-05T10:20:00.719Z,90.80
2022-11-05T10:21:00.732Z,89.78
2022-11-05T10:22:06.608Z,89.58
2022-11-05T10:23:01.682Z,88.76
2022-11-05T10:24:00.663Z,87.63
2022-11-05T10:25:00.650Z,88.08
2022-11-05T10:26:00.669Z,89.31
2022-11-05T10:27:00.624Z,90.19
2022-11-05T10:28:00.600Z,90.70
2022-11-05T10:29:00.588Z,89.67
2022-11-05T10:30:00.624Z,87.94
2022-11-05T10:31:00.564Z,88.24
2022-11-05T10:32:00.544Z,89.37
2022-11-05T10:33:01.484Z,89.47
2022-11-05T10:34:00.523Z,90.19
2022-11-05T10:35:00.507Z,89.73
2022-11-05T10:36:00.507Z,88.82
2022-11-05T10:37:00.486Z,88.06
2022-11-05T10:38:00.466Z,87.14
2022-11-05T10:39:00.456Z,87.08
2022-11-05T10:40:00.458Z,87.90
2022-11-05T10:41:00.435Z,87.79
2022-11-05T10:42:00.417Z,87.76
2022-11-05T10:43:00.408Z,87.65
2022-11-05T10:44:01.347Z,87.24
2022-11-05T10:45:00.378Z,86.43
2022-11-05T10:46:00.368Z,85.98
2022-11-05T10:47:00.350Z,85.88
2022-11-05T10:48:00.339Z,86.04
2022-11-05T10:49:00.320Z,86.45
2022-11-05T10:50:00.328Z,84.61
2022-11-05T10:51:00.302Z,85.02
2022-11-05T10:52:00.280Z,85.94
2022-11-05T10:53:01.232Z,85.22
2022-11-05T10:54:02.192Z,84.98
2022-11-05T10:55:00.267Z,84.17
2022-11-05T10:56:00.229Z,84.00
2022-11-05T10:57:00.221Z,83.80
2022-11-05T10:58:00.204Z,83.63
2022-11-05T10:59:00.192Z,84.86
2022-11-05T11:00:00.481Z,86.18
2022-11-05T11:01:00.212Z,84.86
2022-11-05T11:02:00.239Z,84.96
2022-11-05T11:03:00.140Z,85.61
2022-11-05T11:04:00.124Z,85.88
2022-11-05T11:05:00.113Z,85.16
2022-11-05T11:06:00.095Z,85.98
2022-11-05T11:07:00.080Z,85.92
2022-11-05T11:08:00.087Z,85.71
2022-11-05T11:09:00.076Z,86.02
2022-11-05T11:10:00.045Z,86.12
2022-11-05T11:11:00.025Z,84.80
2022-11-05T11:12:00.053Z,85.71
2022-11-05T11:13:00.065Z,85.77
2022-11-05T11:13:59.986Z,86.69
2022-11-05T11:15:00.008Z,85.06
2022-11-05T11:15:59.991Z,85.43
2022-11-05T11:16:59.947Z,85.84
2022-11-05T11:17:59.996Z,84.27
2022-11-05T11:18:59.918Z,84.17
2022-11-05T11:19:59.925Z,84.23
2022-11-05T11:20:59.888Z,81.85
2022-11-05T11:21:59.896Z,82.76
2022-11-05T11:22:59.869Z,80.93
2022-11-05T11:23:59.869Z,81.20
2022-11-05T11:24:59.858Z,79.68
2022-11-05T11:25:59.833Z,81.30
2022-11-05T11:26:59.819Z,79.68
2022-11-05T11:27:59.810Z,78.35
2022-11-05T11:28:59.791Z,78.35
2022-11-05T11:29:59.796Z,79.84
2022-11-05T11:31:00.712Z,78.89
2022-11-05T11:31:59.781Z,79.80
2022-11-05T11:32:59.746Z,78.38
2022-11-05T11:33:59.732Z,78.24
2022-11-05T11:34:59.724Z,78.75
2022-11-05T11:35:59.703Z,80.88
2022-11-05T11:36:59.694Z,80.74
2022-11-05T11:37:59.676Z,79.42
2022-11-05T11:38:59.654Z,78.67
2022-11-05T11:39:59.925Z,78.30
2022-11-05T11:40:59.624Z,77.19
2022-11-05T11:41:59.622Z,77.66
2022-11-05T11:42:59.597Z,76.48
2022-11-05T11:43:59.603Z,77.09
2022-11-05T11:44:59.589Z,77.29
2022-11-05T11:46:05.408Z,78.81
2022-11-05T11:47:01.506Z,76.82
2022-11-05T11:47:59.548Z,78.48
2022-11-05T11:48:59.517Z,78.01
2022-11-05T11:49:59.530Z,78.41
2022-11-05T11:50:59.507Z,78.11
2022-11-05T11:51:59.500Z,77.13
2022-11-05T11:52:59.469Z,77.78
2022-11-05T11:53:59.466Z,78.59
2022-11-05T11:54:59.460Z,79.54
2022-11-05T11:55:59.437Z,79.14
2022-11-05T11:56:59.420Z,79.30
2022-11-05T11:57:59.431Z,77.78
2022-11-05T11:58:59.427Z,79.71
2022-11-05T12:00:14.668Z,79.95
2022-11-05T12:01:01.329Z,78.83
2022-11-05T12:01:59.437Z,79.85
2022-11-05T12:03:02.071Z,79.95
2022-11-05T12:03:59.340Z,80.56
2022-11-05T12:04:59.320Z,80.02
2022-11-05T12:05:59.323Z,80.66
2022-11-05T12:06:59.291Z,80.56
2022-11-05T12:07:59.275Z,79.64
2022-11-05T12:09:05.350Z,80.46
2022-11-05T12:10:00.262Z,81.11
2022-11-05T12:10:59.234Z,80.19
2022-11-05T12:11:59.249Z,79.75
2022-11-05T12:12:59.215Z,80.05
2022-11-05T12:13:59.211Z,80.40
2022-11-05T12:14:59.184Z,79.48
2022-11-05T12:15:59.173Z,80.16
2022-11-05T12:16:59.154Z,80.63
2022-11-05T12:17:59.146Z,80.32
2022-11-05T12:18:59.133Z,80.52
2022-11-05T12:19:59.117Z,80.52
2022-11-05T12:20:59.146Z,79.14
2022-11-05T12:21:59.095Z,81.04
2022-11-05T12:22:59.078Z,81.95
2022-11-05T12:23:59.071Z,80.73
2022-11-05T12:24:59.047Z,80.22
2022-11-05T12:25:59.036Z,79.98
2022-11-05T12:26:59.989Z,79.16
2022-11-05T12:27:59.009Z,79.88
2022-11-05T12:29:17.946Z,81.71
2022-11-05T12:29:59.981Z,81.20
2022-11-05T12:30:58.970Z,81.13
2022-11-05T12:31:58.966Z,81.34
2022-11-05T12:32:59.064Z,81.58
2022-11-05T12:33:59.071Z,80.97
2022-11-05T12:35:00.402Z,82.03
2022-11-05T12:35:58.913Z,83.29
2022-11-05T12:36:58.893Z,83.59
2022-11-05T12:37:58.880Z,82.10
2022-11-05T12:38:58.923Z,84.66
2022-11-05T12:39:58.862Z,84.90
2022-11-05T12:40:58.844Z,84.69
2022-11-05T12:41:58.829Z,83.81
2022-11-05T12:42:58.813Z,85.14
2022-11-05T12:43:58.815Z,85.75
2022-11-05T12:44:59.034Z,86.77
2022-11-05T12:45:58.794Z,87.38
2022-11-05T12:46:58.768Z,87.38
2022-11-05T12:47:58.748Z,88.31
2022-11-05T12:48:58.746Z,88.20
2022-11-05T12:49:58.716Z,87.79
2022-11-05T12:50:58.723Z,87.08
2022-11-05T12:51:58.685Z,87.29
2022-11-05T12:52:58.682Z,87.49
2022-11-05T12:53:58.668Z,87.12
2022-11-05T12:54:58.647Z,86.20
2022-11-05T12:55:58.646Z,88.35
2022-11-05T12:56:58.627Z,87.63
2022-11-05T12:57:58.618Z,87.23
2022-11-05T12:58:58.611Z,87.32
2022-11-05T12:59:58.578Z,88.65
2022-11-05T13:00:58.671Z,87.73
2022-11-05T13:01:58.650Z,87.84
2022-11-05T13:02:58.561Z,88.04
2022-11-05T13:03:58.548Z,87.94
2022-11-05T13:04:58.536Z,88.24
2022-11-05T13:06:04.532Z,87.23
2022-11-05T13:06:59.502Z,87.43
2022-11-05T13:07:58.481Z,87.63
2022-11-05T13:08:58.471Z,87.63
2022-11-05T13:09:58.449Z,87.49
2022-11-05T13:10:58.443Z,87.59
2022-11-05T13:11:58.432Z,86.06
2022-11-05T13:12:58.418Z,86.16
2022-11-05T13:13:58.410Z,86.16
2022-11-05T13:14:58.412Z,86.71
2022-11-05T13:15:58.363Z,86.77
2022-11-05T13:16:58.381Z,86.88
2022-11-05T13:17:58.342Z,85.96
2022-11-05T13:18:58.344Z,85.96
2022-11-05T13:19:59.273Z,86.67
2022-11-05T13:20:58.305Z,86.57
2022-11-05T13:21:58.293Z,86.94
2022-11-05T13:22:58.277Z,86.63
2022-11-05T13:23:58.265Z,86.73
2022-11-05T13:24:58.250Z,85.61
2022-11-05T13:25:58.240Z,86.22
2022-11-05T13:26:58.230Z,87.04
2022-11-05T13:27:58.216Z,86.83
2022-11-05T13:28:58.205Z,86.63
2022-11-05T13:29:58.189Z,87.24
2022-11-05T13:30:58.166Z,87.04
2022-11-05T13:31:58.159Z,87.24
2022-11-05T13:32:58.154Z,86.94
2022-11-05T13:33:58.161Z,86.94
2022-11-05T13:34:58.118Z,86.33
2022-11-05T13:35:58.110Z,86.53
2022-11-05T13:36:59.044Z,87.24
2022-11-05T13:37:58.089Z,87.14
2022-11-05T13:38:58.089Z,86.94
2022-11-05T13:39:58.059Z,87.04
2022-11-05T13:40:58.039Z,87.14
2022-11-05T13:41:58.033Z,86.73
2022-11-05T13:42:58.021Z,86.83
2022-11-05T13:43:58.010Z,87.55
2022-11-05T13:44:57.980Z,87.35
2022-11-05T13:46:02.811Z,86.63
2022-11-05T13:46:58.960Z,87.04
2022-11-05T13:47:57.950Z,86.63
2022-11-05T13:48:57.941Z,86.36
2022-11-05T13:49:57.933Z,86.47
2022-11-05T13:50:57.912Z,85.71
2022-11-05T13:51:57.895Z,86.83
2022-11-05T13:52:57.882Z,86.83
2022-11-05T13:53:57.877Z,86.22
2022-11-05T13:54:57.855Z,86.26
2022-11-05T13:55:57.833Z,86.47
2022-11-05T13:56:57.824Z,86.47
2022-11-05T13:57:57.807Z,85.86
2022-11-05T13:58:57.804Z,86.16
2022-11-05T13:59:57.794Z,86.36
2022-11-05T14:00:57.816Z,86.26
2022-11-05T14:01:57.805Z,87.08
2022-11-05T14:02:57.745Z,86.47
2022-11-05T14:03:57.738Z,86.06
2022-11-05T14:05:00.935Z,85.55
2022-11-05T14:05:57.717Z,85.86
2022-11-05T14:06:57.687Z,85.24
2022-11-05T14:07:57.677Z,85.18
2022-11-05T14:08:58.635Z,85.38
2022-11-05T14:09:57.647Z,84.98
2022-11-05T14:10:57.643Z,85.28
2022-11-05T14:11:57.635Z,84.57
2022-11-05T14:12:57.621Z,84.77
2022-11-05T14:13:57.598Z,84.47
2022-11-05T14:14:59.002Z,83.44
2022-11-05T14:15:57.570Z,86.00
2022-11-05T14:16:57.560Z,84.26
2022-11-05T14:17:57.544Z,83.95
2022-11-05T14:18:57.540Z,85.08
2022-11-05T14:19:57.511Z,84.77
2022-11-05T14:20:57.512Z,84.88
2022-11-05T14:21:57.514Z,85.49
2022-11-05T14:22:57.473Z,86.91
2022-11-05T14:23:57.469Z,86.00
2022-11-05T14:24:57.451Z,86.24
2022-11-05T14:25:57.469Z,85.94
2022-11-05T14:26:57.455Z,84.91
2022-11-05T14:27:57.404Z,86.76
2022-11-05T14:28:57.413Z,85.12
2022-11-05T14:29:57.388Z,87.26
2022-11-05T14:30:57.378Z,86.85
2022-11-05T14:32:12.555Z,86.55
2022-11-05T14:32:58.353Z,85.53
2022-11-05T14:33:57.335Z,85.97
2022-11-05T14:34:57.323Z,83.32
2022-11-05T14:35:57.305Z,83.11
2022-11-05T14:36:57.294Z,84.03
2022-11-05T14:37:57.272Z,84.03
2022-11-05T14:39:01.495Z,85.06
2022-11-05T14:39:58.245Z,85.47
2022-11-05T14:40:57.235Z,86.38
2022-11-05T14:41:57.226Z,86.90
2022-11-05T14:42:57.208Z,88.74
2022-11-05T14:43:57.196Z,88.64
2022-11-05T14:44:57.198Z,87.61
2022-11-05T14:45:57.167Z,86.63
2022-11-05T14:46:57.157Z,87.55
2022-11-05T14:47:57.145Z,88.17
2022-11-05T14:48:57.128Z,87.65
2022-11-05T14:49:57.109Z,88.37
2022-11-05T14:50:57.112Z,88.98
2022-11-05T14:51:57.104Z,88.17
2022-11-05T14:52:57.080Z,87.70
2022-11-05T14:53:57.079Z,88.10
2022-11-05T14:54:57.049Z,89.43
2022-11-05T14:55:57.031Z,89.53
2022-11-05T14:56:57.022Z,90.25
2022-11-05T14:57:57.014Z,89.64
2022-11-05T14:58:56.998Z,90.36
2022-11-05T14:59:56.988Z,90.97
2022-11-05T15:00:57.036Z,90.70
2022-11-05T15:01:57.948Z,90.09
2022-11-05T15:02:56.961Z,90.30
2022-11-05T15:03:56.970Z,90.19
2022-11-05T15:04:56.922Z,90.50
2022-11-05T15:05:56.902Z,91.31
2022-11-05T15:06:56.898Z,91.77
2022-11-05T15:07:56.912Z,91.87
2022-11-05T15:08:56.900Z,91.97
2022-11-05T15:09:56.852Z,92.18
2022-11-05T15:10:56.835Z,91.77
2022-11-05T15:11:56.814Z,91.56
2022-11-05T15:12:56.814Z,91.82
2022-11-05T15:13:56.835Z,92.74
2022-11-05T15:14:56.790Z,92.63
2022-11-05T15:15:56.760Z,92.83
2022-11-05T15:16:56.787Z,92.22
2022-11-05T15:17:56.774Z,92.22
2022-11-05T15:18:56.743Z,92.57
2022-11-05T15:19:56.707Z,92.98
2022-11-05T15:20:56.709Z,92.88
2022-11-05T15:21:56.698Z,93.80
2022-11-05T15:22:56.686Z,93.08
2022-11-05T15:23:56.668Z,92.93
2022-11-05T15:24:56.648Z,93.33
2022-11-05T15:25:56.638Z,93.74
2022-11-05T15:26:56.617Z,94.05
2022-11-05T15:27:56.618Z,94.36
2022-11-05T15:28:56.601Z,94.26
2022-11-05T15:29:56.579Z,94.77
2022-11-05T15:30:56.570Z,94.51
2022-11-05T15:31:56.560Z,94.81
2022-11-05T15:32:56.550Z,95.32
2022-11-05T15:33:56.519Z,95.43
2022-11-05T15:34:56.513Z,95.64
2022-11-05T15:35:56.516Z,95.64
2022-11-05T15:36:56.490Z,95.12
2022-11-05T15:38:01.695Z,95.17
2022-11-05T15:39:23.340Z,94.96
2022-11-05T15:39:57.452Z,94.65
2022-11-05T15:40:56.436Z,95.06
2022-11-05T15:41:56.422Z,95.47
2022-11-05T15:42:56.412Z,95.57
2022-11-05T15:43:56.392Z,95.01
2022-11-05T15:44:56.397Z,95.01
2022-11-05T15:45:56.373Z,95.05
2022-11-05T15:46:56.625Z,95.25
2022-11-05T15:47:56.344Z,95.46
2022-11-05T15:48:56.324Z,95.56
2022-11-05T15:49:56.313Z,95.97
2022-11-05T15:50:56.317Z,96.28
2022-11-05T15:51:56.315Z,96.18
2022-11-05T15:53:04.856Z,96.48
2022-11-05T15:54:57.262Z,95.81
2022-11-05T15:55:57.101Z,95.81
2022-11-05T15:56:56.234Z,96.33
2022-11-05T15:57:56.205Z,96.53
2022-11-05T15:58:56.196Z,96.73
2022-11-05T15:59:56.204Z,97.05
2022-11-05T16:00:56.166Z,97.09
2022-11-05T16:01:56.343Z,97.09
2022-11-05T16:02:56.136Z,96.99
2022-11-05T16:03:56.122Z,97.09
2022-11-05T16:04:56.116Z,97.30
2022-11-05T16:05:56.097Z,97.19
2022-11-05T16:06:56.093Z,97.30
2022-11-05T16:07:56.067Z,97.09
2022-11-05T16:08:56.057Z,96.99
2022-11-05T16:09:56.056Z,97.19
2022-11-05T16:10:56.277Z,97.14
2022-11-05T16:11:56.018Z,97.03
2022-11-05T16:12:56.017Z,96.93
2022-11-05T16:13:55.988Z,97.03
2022-11-05T16:14:55.978Z,96.83
2022-11-05T16:15:55.983Z,97.03
2022-11-05T16:16:55.952Z,97.14
2022-11-05T16:17:55.931Z,96.93
2022-11-05T16:18:55.920Z,97.03
2022-11-05T16:19:55.910Z,97.14
2022-11-05T16:20:56.860Z,97.24
2022-11-05T16:21:55.888Z,97.03
2022-11-05T16:22:55.862Z,97.03
2022-11-05T16:23:55.863Z,97.24
2022-11-05T16:24:55.841Z,97.03
2022-11-05T16:25:55.841Z,97.03
2022-11-05T16:27:03.600Z,97.03
2022-11-05T16:27:56.804Z,97.14
2022-11-05T16:28:55.793Z,97.24
2022-11-05T16:29:55.775Z,97.03
2022-11-05T16:30:55.772Z,97.03
2022-11-05T16:31:55.916Z,97.14
2022-11-05T16:33:01.827Z,97.08
2022-11-05T16:34:00.025Z,96.88
2022-11-05T17:46:09.599Z,96.88
2022-11-05T17:46:14.354Z,99.99
2022-11-05T17:47:14.359Z,99.99
2022-11-05T17:48:14.338Z,99.99
2022-11-05T17:49:14.331Z,99.99
2022-11-05T17:50:14.334Z,99.99
2022-11-05T17:51:14.301Z,99.99
2022-11-05T17:52:14.270Z,99.99
2022-11-05T17:53:14.612Z,99.99
2022-11-05T17:54:14.241Z,99.99
2022-11-05T17:55:15.468Z,99.99
2022-11-05T17:56:15.136Z,99.99
2022-11-05T17:57:14.235Z,99.99
2022-11-05T17:58:14.209Z,99.99
2022-11-05T17:59:14.192Z,99.99
2022-11-05T18:00:14.173Z,99.99
2022-11-05T18:01:14.209Z,99.99
2022-11-05T18:02:14.243Z,99.99
2022-11-05T18:03:14.465Z,99.99
2022-11-05T18:04:14.118Z,99.99
2022-11-05T18:05:14.105Z,99.98
2022-11-05T18:06:14.083Z,99.66
2022-11-05T18:07:14.097Z,99.56
2022-11-05T18:08:14.053Z,99.56
2022-11-05T18:09:14.046Z,99.46
2022-11-05T18:10:14.034Z,99.25
2022-11-05T18:11:14.025Z,99.05
2022-11-05T18:12:14.012Z,98.94
2022-11-05T18:13:14.363Z,99.05
2022-11-05T18:14:13.985Z,98.94
2022-11-05T18:15:13.975Z,98.84
2022-11-05T18:16:13.964Z,98.84
2022-11-05T18:17:13.939Z,98.84
2022-11-05T18:18:13.926Z,98.84
2022-11-05T18:19:13.921Z,98.74
2022-11-05T18:20:18.577Z,98.74
2022-11-05T18:21:14.875Z,98.84
2022-11-05T18:22:13.867Z,98.94
2022-11-05T18:23:14.133Z,98.94
2022-11-05T18:24:13.844Z,98.84
2022-11-05T18:25:13.838Z,98.84
2022-11-05T18:26:13.847Z,98.84
2022-11-05T18:27:13.799Z,98.74
2022-11-05T18:28:14.167Z,98.78
2022-11-05T18:29:13.787Z,98.88
2022-11-05T18:30:13.784Z,98.88
2022-11-05T18:31:17.867Z,99.09
2022-11-05T18:32:13.758Z,99.19
2022-11-05T18:33:14.090Z,99.30
2022-11-05T18:34:13.715Z,99.30
2022-11-05T18:35:13.699Z,99.40
2022-11-05T18:36:13.679Z,99.40
2022-11-05T18:37:13.682Z,99.51
2022-11-05T18:38:13.664Z,99.51
2022-11-05T18:39:13.639Z,99.40
2022-11-05T18:40:13.633Z,99.40
2022-11-05T18:41:13.619Z,99.30
2022-11-05T18:42:13.601Z,99.30
2022-11-05T18:43:13.878Z,99.30
2022-11-05T18:44:13.580Z,99.30
2022-11-05T18:45:13.598Z,99.30
2022-11-05T18:46:35.815Z,99.30
2022-11-05T18:47:15.752Z,99.30
2022-11-05T18:48:13.666Z,99.19
2022-11-05T18:49:13.519Z,99.30